createdAt,value
2022-07-29T00:00:00.599Z,22.49
2022-07-29T00:02:28.249Z,22.49
2022-07-29T00:04:54.735Z,22.48
2022-07-29T00:07:21.332Z,22.48
2022-07-29T00:09:51.723Z,22.47
2022-07-29T00:12:26.550Z,22.47
2022-07-29T00:14:57.402Z,22.47
2022-07-29T00:17:25.138Z,22.47
2022-07-29T00:19:51.927Z,22.47
2022-07-29T00:22:19.000Z,22.47
2022-07-29T00:24:45.397Z,22.46
2022-07-29T00:27:11.750Z,22.46
2022-07-29T00:29:38.095Z,22.46
2022-07-29T00:32:04.742Z,22.46
2022-07-29T00:34:50.245Z,22.46
2022-07-29T00:37:16.675Z,22.44
2022-07-29T00:39:43.578Z,22.45
2022-07-29T00:42:10.658Z,22.44
2022-07-29T00:44:41.578Z,22.44
2022-07-29T00:47:08.977Z,22.44
2022-07-29T00:49:36.167Z,22.43
2022-07-29T00:52:04.308Z,22.43
2022-07-29T00:54:31.197Z,22.43
2022-07-29T00:56:59.835Z,22.42
2022-07-29T00:59:34.453Z,22.43
2022-07-29T01:02:01.903Z,22.41
2022-07-29T01:04:28.334Z,22.42
2022-07-29T01:06:55.658Z,22.42
2022-07-29T01:09:43.204Z,22.41
2022-07-29T01:12:09.869Z,22.41
2022-07-29T01:14:38.171Z,22.41
2022-07-29T01:17:18.523Z,22.39
2022-07-29T01:20:11.250Z,22.39
2022-07-29T01:23:15.285Z,22.39
2022-07-29T01:25:53.220Z,22.40
2022-07-29T01:28:47.881Z,22.39
2022-07-29T01:31:25.010Z,22.39
2022-07-29T01:33:58.483Z,22.37
2022-07-29T01:36:33.307Z,22.37
2022-07-29T01:39:08.323Z,22.37
2022-07-29T01:41:38.196Z,22.38
2022-07-29T01:44:16.031Z,22.37
2022-07-29T01:46:48.476Z,22.37
2022-07-29T01:49:22.640Z,22.36
2022-07-29T01:51:53.686Z,22.37
2022-07-29T01:54:31.610Z,22.35
2022-07-29T01:57:00.732Z,22.36
2022-07-29T01:59:28.707Z,22.36
2022-07-29T02:01:58.324Z,22.34
2022-07-29T02:04:29.328Z,22.34
2022-07-29T02:07:04.611Z,22.33
2022-07-29T02:09:34.160Z,22.33
2022-07-29T02:12:03.623Z,22.32
2022-07-29T02:14:36.981Z,22.33
2022-07-29T02:17:03.944Z,22.31
2022-07-29T02:19:33.399Z,22.33
2022-07-29T02:22:00.923Z,22.33
2022-07-29T02:24:28.688Z,22.32
2022-07-29T02:26:58.005Z,22.31
2022-07-29T02:29:27.204Z,22.33
2022-07-29T02:31:55.031Z,22.31
2022-07-29T02:34:22.627Z,22.31
2022-07-29T02:36:50.426Z,22.31
2022-07-29T02:39:19.096Z,22.30
2022-07-29T02:41:57.064Z,22.30
2022-07-29T02:44:29.024Z,22.30
2022-07-29T02:47:05.215Z,22.30
2022-07-29T02:49:37.299Z,22.29
2022-07-29T02:52:15.092Z,22.29
2022-07-29T02:54:55.870Z,22.29
2022-07-29T02:57:31.332Z,22.28
2022-07-29T02:59:59.885Z,22.28
2022-07-29T03:02:28.024Z,22.28
2022-07-29T03:04:56.272Z,22.27
2022-07-29T03:07:25.503Z,22.27
2022-07-29T03:09:53.484Z,22.28
2022-07-29T03:12:20.316Z,22.27
2022-07-29T03:14:47.390Z,22.27
2022-07-29T03:17:14.716Z,22.26
2022-07-29T03:19:41.640Z,22.27
2022-07-29T03:22:08.322Z,22.26
2022-07-29T03:24:36.627Z,22.25
2022-07-29T03:27:04.567Z,22.25
2022-07-29T03:29:33.021Z,22.24
2022-07-29T03:31:59.767Z,22.25
2022-07-29T03:34:26.130Z,22.24
2022-07-29T03:36:52.535Z,22.24
2022-07-29T03:39:25.690Z,22.24
2022-07-29T03:41:56.053Z,22.24
2022-07-29T03:44:23.543Z,22.24
2022-07-29T03:46:52.783Z,22.25
2022-07-29T03:49:21.096Z,22.23
2022-07-29T03:51:50.780Z,22.23
2022-07-29T03:54:17.485Z,22.23
2022-07-29T03:56:48.362Z,22.22
2022-07-29T03:59:17.508Z,22.22
2022-07-29T04:01:44.750Z,22.24
2022-07-29T04:04:11.672Z,22.22
2022-07-29T04:06:43.169Z,22.22
2022-07-29T04:09:10.469Z,22.23
2022-07-29T04:12:01.331Z,22.21
2022-07-29T04:14:25.260Z,22.20
2022-07-29T04:16:51.688Z,22.20
2022-07-29T04:19:18.032Z,22.20
2022-07-29T04:21:46.049Z,22.20
2022-07-29T04:24:12.653Z,22.19
2022-07-29T04:26:39.369Z,22.21
2022-07-29T04:29:05.786Z,22.19
2022-07-29T04:31:32.229Z,22.20
2022-07-29T04:33:58.656Z,22.20
2022-07-29T04:36:29.191Z,22.19
2022-07-29T04:38:56.196Z,22.19
2022-07-29T04:41:22.559Z,22.19
2022-07-29T04:43:50.165Z,22.19
2022-07-29T04:46:16.879Z,22.19
2022-07-29T04:48:43.331Z,22.18
2022-07-29T04:51:09.789Z,22.19
2022-07-29T04:53:36.210Z,22.18
2022-07-29T04:56:03.007Z,22.18
2022-07-29T04:58:29.360Z,22.17
2022-07-29T05:00:55.838Z,22.17
2022-07-29T05:03:22.339Z,22.17
2022-07-29T05:05:48.735Z,22.17
2022-07-29T05:08:15.114Z,22.17
2022-07-29T05:10:41.499Z,22.16
2022-07-29T05:13:08.519Z,22.16
2022-07-29T05:15:35.993Z,22.16
2022-07-29T05:18:02.769Z,22.16
2022-07-29T05:20:30.276Z,22.17
2022-07-29T05:22:57.551Z,22.15
2022-07-29T05:25:24.928Z,22.16
2022-07-29T05:28:10.470Z,22.16
2022-07-29T05:30:36.862Z,22.16
2022-07-29T05:33:03.230Z,22.16
2022-07-29T05:35:29.613Z,22.15
2022-07-29T05:37:55.968Z,22.16
2022-07-29T05:40:22.487Z,22.17
2022-07-29T05:42:48.885Z,22.17
2022-07-29T05:45:15.234Z,22.16
2022-07-29T05:47:41.615Z,22.16
2022-07-29T05:50:08.560Z,22.16
2022-07-29T05:52:34.916Z,22.15
2022-07-29T05:55:05.133Z,22.16
2022-07-29T05:57:31.929Z,22.17
2022-07-29T05:59:58.728Z,22.15
2022-07-29T06:02:25.189Z,22.17
2022-07-29T06:04:51.760Z,22.16
2022-07-29T06:07:18.256Z,22.16
2022-07-29T06:09:44.785Z,22.16
2022-07-29T06:12:11.451Z,22.10
2022-07-29T06:14:39.084Z,22.04
2022-07-29T06:17:06.490Z,22.02
2022-07-29T06:19:35.261Z,22.00
2022-07-29T06:22:01.729Z,21.97
2022-07-29T06:24:28.074Z,21.96
2022-07-29T06:26:54.433Z,21.93
2022-07-29T06:29:20.857Z,21.90
2022-07-29T06:31:47.258Z,21.84
2022-07-29T06:34:14.111Z,21.79
2022-07-29T06:36:41.140Z,21.78
2022-07-29T06:39:08.584Z,21.79
2022-07-29T06:41:35.650Z,21.80
2022-07-29T06:44:02.559Z,21.79
2022-07-29T06:46:29.706Z,21.75
2022-07-29T06:48:56.204Z,21.71
2022-07-29T06:51:24.081Z,21.71
2022-07-29T06:53:59.377Z,21.75
2022-07-29T06:56:28.718Z,21.78
2022-07-29T06:58:55.121Z,21.82
2022-07-29T07:01:21.600Z,21.88
2022-07-29T07:03:48.513Z,21.92
2022-07-29T07:06:17.263Z,21.96
2022-07-29T07:08:43.694Z,21.99
2022-07-29T07:11:10.168Z,22.02
2022-07-29T07:13:37.003Z,22.04
2022-07-29T07:16:04.413Z,22.06
2022-07-29T07:18:31.159Z,22.07
2022-07-29T07:20:58.237Z,22.11
2022-07-29T07:23:25.687Z,22.13
2022-07-29T07:25:53.395Z,22.17
2022-07-29T07:28:24.856Z,22.17
2022-07-29T07:30:52.497Z,22.19
2022-07-29T07:33:18.926Z,22.21
2022-07-29T07:35:45.379Z,22.21
2022-07-29T07:38:11.802Z,22.23
2022-07-29T07:40:38.190Z,22.24
2022-07-29T07:43:04.764Z,22.25
2022-07-29T07:45:33.743Z,22.26
2022-07-29T07:48:00.757Z,22.26
2022-07-29T07:50:27.500Z,22.26
2022-07-29T07:52:58.437Z,22.26
2022-07-29T07:55:25.083Z,22.28
2022-07-29T07:57:51.468Z,22.28
2022-07-29T08:00:18.140Z,22.29
2022-07-29T08:02:46.000Z,22.30
2022-07-29T08:05:17.513Z,22.29
2022-07-29T08:07:45.793Z,22.31
2022-07-29T08:10:12.441Z,22.32
2022-07-29T08:12:38.971Z,22.33
2022-07-29T08:15:08.150Z,22.34
2022-07-29T08:17:35.350Z,22.35
2022-07-29T08:20:02.004Z,22.33
2022-07-29T08:22:29.380Z,22.34
2022-07-29T08:24:56.957Z,22.36
2022-07-29T08:27:42.378Z,22.35
2022-07-29T08:30:10.995Z,22.37
2022-07-29T08:32:53.243Z,22.37
2022-07-29T08:35:22.327Z,22.38
2022-07-29T08:37:49.122Z,22.38
2022-07-29T08:40:15.634Z,22.37
2022-07-29T08:42:42.255Z,22.38
2022-07-29T08:45:09.297Z,22.40
2022-07-29T08:47:40.437Z,22.40
2022-07-29T08:50:08.814Z,22.40
2022-07-29T08:52:38.554Z,22.39
2022-07-29T08:55:06.953Z,22.41
2022-07-29T08:57:34.954Z,22.42
2022-07-29T09:00:11.324Z,22.42
2022-07-29T09:02:42.551Z,22.42
2022-07-29T09:05:09.678Z,22.43
2022-07-29T09:07:36.444Z,22.44
2022-07-29T09:10:05.216Z,22.43
2022-07-29T09:12:37.589Z,22.44
2022-07-29T09:15:04.742Z,22.45
2022-07-29T09:17:42.738Z,22.46
2022-07-29T09:20:11.792Z,22.46
2022-07-29T09:22:41.855Z,22.47
2022-07-29T09:25:09.250Z,22.47
2022-07-29T09:27:35.696Z,22.45
2022-07-29T09:30:08.669Z,22.45
2022-07-29T09:32:55.540Z,22.47
2022-07-29T09:35:24.378Z,22.46
2022-07-29T09:37:51.402Z,22.47
2022-07-29T09:40:22.738Z,22.46
2022-07-29T09:42:49.749Z,22.47
2022-07-29T09:45:31.451Z,22.47
2022-07-29T09:48:01.276Z,22.47
2022-07-29T09:50:38.940Z,22.47
2022-07-29T09:53:05.396Z,22.47
2022-07-29T09:55:31.794Z,22.47
2022-07-29T09:58:20.205Z,22.47
2022-07-29T10:00:48.038Z,22.47
2022-07-29T10:03:16.555Z,22.49
2022-07-29T10:05:44.058Z,22.48
2022-07-29T10:08:13.215Z,22.48
2022-07-29T10:10:42.623Z,22.47
2022-07-29T10:13:16.354Z,22.48
2022-07-29T10:15:46.027Z,22.51
2022-07-29T10:18:14.305Z,22.52
2022-07-29T10:20:41.388Z,22.53
2022-07-29T10:23:08.039Z,22.53
2022-07-29T10:25:34.428Z,22.54
2022-07-29T10:28:00.792Z,22.55
2022-07-29T10:30:27.660Z,22.57
2022-07-29T10:33:12.967Z,22.59
2022-07-29T10:35:44.736Z,22.60
2022-07-29T10:38:45.793Z,22.60
2022-07-29T10:41:27.378Z,22.60
2022-07-29T10:44:00.425Z,22.59
2022-07-29T10:46:28.778Z,22.61
2022-07-29T10:49:11.440Z,22.61
2022-07-29T10:51:55.809Z,22.62
2022-07-29T10:54:47.160Z,22.62
2022-07-29T10:57:13.997Z,22.61
2022-07-29T10:59:41.299Z,22.61
2022-07-29T11:02:42.131Z,22.62
2022-07-29T11:05:13.840Z,22.63
2022-07-29T11:08:02.325Z,22.62
2022-07-29T11:10:31.372Z,22.63
2022-07-29T11:12:59.098Z,22.63
2022-07-29T11:15:25.667Z,22.63
2022-07-29T11:17:55.111Z,22.63
2022-07-29T11:20:40.449Z,22.65
2022-07-29T11:23:20.853Z,22.64
2022-07-29T11:26:13.482Z,22.65
2022-07-29T11:28:55.706Z,22.65
2022-07-29T11:31:35.949Z,22.65
2022-07-29T11:34:19.130Z,22.65
2022-07-29T11:37:06.161Z,22.64
2022-07-29T11:42:32.323Z,22.64
2022-07-29T11:45:43.056Z,22.63
2022-07-29T11:48:29.753Z,22.63
2022-07-29T11:50:53.247Z,22.64
2022-07-29T11:53:19.753Z,22.64
2022-07-29T11:55:55.275Z,22.63
2022-07-29T11:58:26.000Z,22.64
2022-07-29T12:00:53.310Z,22.63
2022-07-29T12:03:34.190Z,22.63
2022-07-29T12:06:04.487Z,22.65
2022-07-29T12:08:41.621Z,22.64
2022-07-29T12:11:16.791Z,22.62
2022-07-29T12:13:43.235Z,22.63
2022-07-29T12:16:09.642Z,22.63
2022-07-29T12:18:41.040Z,22.63
2022-07-29T12:21:09.124Z,22.63
2022-07-29T12:23:38.730Z,22.64
2022-07-29T12:26:07.411Z,22.64
2022-07-29T12:28:40.430Z,22.66
2022-07-29T12:31:14.202Z,22.65
2022-07-29T12:33:40.717Z,22.65
2022-07-29T12:36:10.506Z,22.66
2022-07-29T12:38:41.374Z,22.66
2022-07-29T12:41:07.917Z,22.66
2022-07-29T12:43:34.407Z,22.66
2022-07-29T12:46:13.962Z,22.71
2022-07-29T12:48:43.272Z,22.75
2022-07-29T12:51:11.030Z,22.76
2022-07-29T12:53:38.327Z,22.75
2022-07-29T12:56:20.610Z,22.75
2022-07-29T12:58:51.085Z,22.76
2022-07-29T13:01:20.408Z,22.76
2022-07-29T13:03:57.463Z,22.77
2022-07-29T13:06:36.394Z,22.79
2022-07-29T13:09:08.649Z,22.79
2022-07-29T13:11:47.901Z,22.80
2022-07-29T13:14:34.921Z,22.79
2022-07-29T13:17:19.068Z,22.78
2022-07-29T13:19:53.876Z,22.80
2022-07-29T13:22:25.005Z,22.83
2022-07-29T13:25:03.983Z,22.84
2022-07-29T13:27:33.768Z,22.85
2022-07-29T13:30:02.584Z,22.86
2022-07-29T13:32:31.444Z,22.86
2022-07-29T13:34:59.868Z,22.88
2022-07-29T13:37:27.208Z,22.88
2022-07-29T13:39:54.991Z,22.88
2022-07-29T13:42:21.523Z,22.88
2022-07-29T13:44:49.515Z,22.89
2022-07-29T13:47:17.048Z,22.90
2022-07-29T13:49:43.569Z,22.89
2022-07-29T13:52:09.939Z,22.90
2022-07-29T13:54:42.362Z,22.91
2022-07-29T13:57:09.206Z,22.90
2022-07-29T13:59:35.601Z,22.92
2022-07-29T14:02:01.982Z,22.93
2022-07-29T14:04:28.375Z,22.96
2022-07-29T14:06:55.101Z,22.97
2022-07-29T14:09:21.578Z,23.01
2022-07-29T14:11:50.512Z,23.01
2022-07-29T14:14:16.887Z,23.01
2022-07-29T14:16:47.611Z,23.01
2022-07-29T14:19:16.974Z,23.04
2022-07-29T14:21:43.376Z,23.05
2022-07-29T14:24:16.302Z,23.06
2022-07-29T14:26:47.988Z,23.08
2022-07-29T14:29:14.480Z,23.07
2022-07-29T14:31:41.003Z,23.09
2022-07-29T14:34:07.420Z,23.08
2022-07-29T14:36:33.802Z,23.11
2022-07-29T14:39:00.143Z,23.10
2022-07-29T14:41:29.067Z,23.10
2022-07-29T14:43:55.448Z,23.08
2022-07-29T14:46:21.841Z,23.07
2022-07-29T14:48:48.325Z,23.06
2022-07-29T14:51:14.849Z,23.06
2022-07-29T14:53:41.200Z,23.07
2022-07-29T14:56:35.065Z,23.05
2022-07-29T14:58:53.934Z,23.05
2022-07-29T15:01:20.455Z,23.06
2022-07-29T15:03:47.013Z,23.07
2022-07-29T15:06:13.475Z,23.08
2022-07-29T15:08:39.909Z,23.07
2022-07-29T15:11:06.395Z,23.08
2022-07-29T15:13:33.651Z,23.08
2022-07-29T15:16:00.512Z,23.07
2022-07-29T15:18:27.054Z,23.07
2022-07-29T15:20:53.424Z,23.08
2022-07-29T15:23:20.592Z,23.09
2022-07-29T15:25:47.235Z,23.08
2022-07-29T15:28:13.655Z,23.09
2022-07-29T15:30:42.769Z,23.10
2022-07-29T15:33:10.370Z,23.12
2022-07-29T15:35:40.433Z,23.12
2022-07-29T15:38:07.902Z,23.11
2022-07-29T15:40:34.356Z,23.12
2022-07-29T15:43:06.534Z,23.11
2022-07-29T15:45:40.131Z,23.12
2022-07-29T15:48:08.471Z,23.12
2022-07-29T15:50:35.596Z,23.15
2022-07-29T15:53:03.081Z,23.16
2022-07-29T15:55:29.503Z,23.15
2022-07-29T15:58:00.307Z,23.14
2022-07-29T16:00:27.210Z,23.12
2022-07-29T16:02:53.565Z,23.12
2022-07-29T16:05:20.021Z,23.13
2022-07-29T16:07:46.462Z,23.10
2022-07-29T16:10:12.855Z,23.11
2022-07-29T16:12:39.298Z,23.10
2022-07-29T16:15:09.933Z,23.11
2022-07-29T16:17:37.759Z,23.10
2022-07-29T16:20:05.793Z,23.11
2022-07-29T16:22:32.484Z,23.12
2022-07-29T16:24:58.899Z,23.11
2022-07-29T16:27:34.284Z,23.11
2022-07-29T16:30:05.828Z,23.12
2022-07-29T16:32:32.200Z,23.13
2022-07-29T16:34:58.585Z,23.13
2022-07-29T16:37:24.965Z,23.13
2022-07-29T16:39:55.239Z,23.13
2022-07-29T16:42:45.064Z,23.12
2022-07-29T16:45:10.481Z,23.14
2022-07-29T16:47:37.031Z,23.13
2022-07-29T16:50:04.708Z,23.14
2022-07-29T16:52:31.090Z,23.15
2022-07-29T16:54:57.459Z,23.16
2022-07-29T16:57:24.271Z,23.18
2022-07-29T16:59:51.546Z,23.22
2022-07-29T17:02:18.485Z,23.25
2022-07-29T17:04:44.910Z,23.26
2022-07-29T17:07:11.674Z,23.27
2022-07-29T17:09:38.129Z,23.30
2022-07-29T17:12:04.835Z,23.32
2022-07-29T17:14:31.867Z,23.33
2022-07-29T17:17:00.932Z,23.34
2022-07-29T17:19:31.754Z,23.35
2022-07-29T17:22:06.379Z,23.38
2022-07-29T17:24:37.152Z,23.36
2022-07-29T17:27:04.983Z,23.38
2022-07-29T17:29:31.419Z,23.40
2022-07-29T17:31:59.383Z,23.40
2022-07-29T17:34:25.871Z,23.38
2022-07-29T17:36:52.383Z,23.40
2022-07-29T17:39:18.745Z,23.38
2022-07-29T17:41:46.696Z,23.37
2022-07-29T17:44:13.461Z,23.38
2022-07-29T17:46:40.661Z,23.36
2022-07-29T17:49:10.176Z,23.34
2022-07-29T17:51:36.670Z,23.35
2022-07-29T17:54:03.330Z,23.35
2022-07-29T17:56:29.719Z,23.39
2022-07-29T17:58:57.189Z,23.39
2022-07-29T18:01:26.009Z,23.38
2022-07-29T18:03:53.220Z,23.38
2022-07-29T18:06:20.834Z,23.38
2022-07-29T18:08:47.823Z,23.37
2022-07-29T18:11:15.161Z,23.35
2022-07-29T18:13:41.951Z,23.34
2022-07-29T18:16:11.566Z,23.33
2022-07-29T18:18:38.081Z,23.32
2022-07-29T18:21:04.517Z,23.33
2022-07-29T18:23:31.272Z,23.34
2022-07-29T18:25:57.619Z,23.35
2022-07-29T18:28:24.006Z,23.34
2022-07-29T18:30:50.515Z,23.34
2022-07-29T18:33:21.209Z,23.32
2022-07-29T18:35:49.463Z,23.32
2022-07-29T18:38:15.951Z,23.33
2022-07-29T18:40:42.521Z,23.34
2022-07-29T18:43:09.108Z,23.33
2022-07-29T18:45:35.475Z,23.33
2022-07-29T18:48:02.268Z,23.34
2022-07-29T18:50:30.110Z,23.33
2022-07-29T18:52:58.520Z,23.35
2022-07-29T18:55:26.003Z,23.35
2022-07-29T18:57:54.256Z,23.34
2022-07-29T19:00:23.797Z,23.34
2022-07-29T19:02:50.331Z,23.34
2022-07-29T19:05:16.902Z,23.35
2022-07-29T19:07:46.345Z,23.35
2022-07-29T19:10:13.442Z,23.34
2022-07-29T19:12:42.986Z,23.34
2022-07-29T19:15:10.595Z,23.33
2022-07-29T19:17:39.374Z,23.32
2022-07-29T19:20:07.387Z,23.33
2022-07-29T19:22:34.309Z,23.32
2022-07-29T19:25:00.722Z,23.33
2022-07-29T19:27:27.067Z,23.33
2022-07-29T19:29:55.086Z,23.34
2022-07-29T19:32:25.598Z,23.35
2022-07-29T19:35:11.426Z,23.34
2022-07-29T19:37:37.794Z,23.35
2022-07-29T19:40:05.719Z,23.35
2022-07-29T19:42:32.167Z,23.34
2022-07-29T19:44:58.721Z,23.34
2022-07-29T19:47:25.100Z,23.34
2022-07-29T19:49:51.514Z,23.34
2022-07-29T19:52:17.981Z,23.32
2022-07-29T19:54:44.363Z,23.32
2022-07-29T19:57:10.762Z,23.33
2022-07-29T19:59:37.145Z,23.34
2022-07-29T20:02:03.817Z,23.34
2022-07-29T20:04:33.170Z,23.34
2022-07-29T20:07:04.402Z,23.34
2022-07-29T20:09:31.183Z,23.35
2022-07-29T20:11:57.756Z,23.35
2022-07-29T20:14:24.112Z,23.34
2022-07-29T20:16:50.992Z,23.33
2022-07-29T20:19:17.402Z,23.32
2022-07-29T20:21:44.257Z,23.32
2022-07-29T20:24:11.201Z,23.32
2022-07-29T20:26:37.610Z,23.32
2022-07-29T20:29:05.207Z,23.31
2022-07-29T20:31:34.130Z,23.30
2022-07-29T20:34:01.528Z,23.30
2022-07-29T20:36:28.304Z,23.29
2022-07-29T20:38:55.185Z,23.27
2022-07-29T20:41:21.651Z,23.26
2022-07-29T20:43:49.706Z,23.25
2022-07-29T20:46:16.120Z,23.24
2022-07-29T20:48:42.793Z,23.23
2022-07-29T20:51:09.239Z,23.21
2022-07-29T20:53:37.821Z,23.20
2022-07-29T20:56:04.511Z,23.20
2022-07-29T20:58:32.535Z,23.18
2022-07-29T21:00:58.876Z,23.18
2022-07-29T21:03:26.450Z,23.17
2022-07-29T21:05:52.923Z,23.16
2022-07-29T21:08:19.292Z,23.16
2022-07-29T21:10:45.684Z,23.15
2022-07-29T21:13:13.919Z,23.13
2022-07-29T21:15:45.878Z,23.14
2022-07-29T21:18:27.839Z,23.14
2022-07-29T21:20:55.018Z,23.12
2022-07-29T21:23:21.471Z,23.13
2022-07-29T21:25:47.827Z,23.11
2022-07-29T21:28:32.736Z,23.11
2022-07-29T21:31:03.552Z,23.11
2022-07-29T21:33:31.300Z,23.10
2022-07-29T21:38:44.091Z,23.09
2022-07-29T21:41:12.465Z,23.08
2022-07-29T21:43:41.843Z,23.09
2022-07-29T21:46:09.026Z,23.07
2022-07-29T21:48:35.479Z,23.07
2022-07-29T21:51:02.161Z,23.06
2022-07-29T21:53:28.620Z,23.06
2022-07-29T21:55:55.512Z,23.06
2022-07-29T21:58:22.838Z,23.04
2022-07-29T22:00:49.944Z,23.04
2022-07-29T22:03:16.458Z,23.06
2022-07-29T22:05:42.906Z,23.04
2022-07-29T22:08:09.504Z,23.02
2022-07-29T22:10:36.039Z,23.02
2022-07-29T22:13:03.115Z,23.02
2022-07-29T22:15:29.851Z,23.00
2022-07-29T22:17:56.703Z,23.00
2022-07-29T22:20:23.563Z,23.00
2022-07-29T22:22:49.912Z,22.99
2022-07-29T22:25:16.479Z,23.01
2022-07-29T22:27:43.170Z,23.00
2022-07-29T22:30:10.364Z,22.99
2022-07-29T22:32:36.887Z,22.99
2022-07-29T22:35:03.813Z,22.98
2022-07-29T22:37:30.218Z,22.98
2022-07-29T22:39:56.826Z,22.98
2022-07-29T22:42:23.284Z,22.97
2022-07-29T22:44:49.659Z,22.96
2022-07-29T22:47:15.995Z,22.96
2022-07-29T22:49:42.564Z,22.96
2022-07-29T22:52:09.137Z,22.94
2022-07-29T22:54:35.564Z,22.95
2022-07-29T22:57:02.890Z,22.94
2022-07-29T22:59:29.308Z,22.95
2022-07-29T23:01:55.740Z,22.94
2022-07-29T23:04:23.651Z,22.93
2022-07-29T23:06:51.024Z,22.93
2022-07-29T23:09:17.632Z,22.93
2022-07-29T23:11:44.046Z,22.92
2022-07-29T23:14:10.459Z,22.94
2022-07-29T23:16:36.904Z,22.92
2022-07-29T23:19:03.420Z,22.93
2022-07-29T23:21:29.835Z,22.93
2022-07-29T23:23:56.216Z,22.92
2022-07-29T23:26:22.620Z,22.91
2022-07-29T23:28:49.026Z,22.91
2022-07-29T23:31:15.510Z,22.91
2022-07-29T23:33:41.972Z,22.90
2022-07-29T23:36:08.367Z,22.91
2022-07-29T23:38:34.768Z,22.90
2022-07-29T23:41:02.207Z,22.90
2022-07-29T23:43:28.763Z,22.89
2022-07-29T23:45:56.134Z,22.89
2022-07-29T23:48:24.597Z,22.90
2022-07-29T23:50:50.999Z,22.88
2022-07-29T23:53:17.566Z,22.88
2022-07-29T23:55:43.932Z,22.87
2022-07-29T23:58:10.389Z,22.87
